createdAt,value
2023-02-11T00:00:15.854Z,26.15
2023-02-11T00:02:43.024Z,26.31
2023-02-11T00:05:09.934Z,25.72
2023-02-11T00:07:36.920Z,25.95
2023-02-11T00:10:04.793Z,25.42
2023-02-11T00:12:31.707Z,25.68
2023-02-11T00:14:58.564Z,25.22
2023-02-11T00:17:25.454Z,25.09
2023-02-11T00:19:52.478Z,24.78
2023-02-11T00:22:19.445Z,24.92
2023-02-11T00:24:46.360Z,24.87
2023-02-11T00:27:13.250Z,24.29
2023-02-11T00:29:40.116Z,24.28
2023-02-11T00:32:07.188Z,24.12
2023-02-11T00:34:38.158Z,24.10
2023-02-11T00:37:05.755Z,23.79
2023-02-11T00:39:33.862Z,23.90
2023-02-11T00:42:05.106Z,23.75
2023-02-11T00:44:31.993Z,23.85
2023-02-11T00:46:58.842Z,23.31
2023-02-11T00:49:25.773Z,23.30
2023-02-11T00:51:52.610Z,23.28
2023-02-11T00:54:20.266Z,23.00
2023-02-11T00:56:47.136Z,22.98
2023-02-11T00:59:13.971Z,22.78
2023-02-11T01:01:44.148Z,22.60
2023-02-11T01:04:11.112Z,22.55
2023-02-11T01:06:37.962Z,22.67
2023-02-11T01:09:05.809Z,22.79
2023-02-11T01:11:35.343Z,22.34
2023-02-11T01:14:02.189Z,22.18
2023-02-11T01:16:29.050Z,21.95
2023-02-11T01:18:56.077Z,22.09
2023-02-11T01:21:23.092Z,21.79
2023-02-11T01:23:51.296Z,21.66
2023-02-11T01:26:18.200Z,21.46
2023-02-11T01:28:45.030Z,21.55
2023-02-11T01:31:12.012Z,21.46
2023-02-11T01:33:39.013Z,21.22
2023-02-11T01:36:06.876Z,21.20
2023-02-11T01:38:33.870Z,21.07
2023-02-11T01:41:03.040Z,21.17
2023-02-11T01:43:35.453Z,21.00
2023-02-11T01:46:22.301Z,20.91
2023-02-11T01:49:05.244Z,20.84
2023-02-11T01:51:48.577Z,20.72
2023-02-11T01:54:37.511Z,20.83
2023-02-11T01:57:22.617Z,20.71
2023-02-11T02:00:03.900Z,20.53
2023-02-11T02:02:55.328Z,20.40
2023-02-11T02:05:33.670Z,20.44
2023-02-11T02:08:00.857Z,20.50
2023-02-11T02:10:28.032Z,20.35
2023-02-11T02:12:54.941Z,20.25
2023-02-11T02:15:28.974Z,20.24
2023-02-11T02:18:15.277Z,20.40
2023-02-11T02:20:49.050Z,20.41
2023-02-11T02:23:33.907Z,20.48
2023-02-11T02:26:19.924Z,20.21
2023-02-11T02:28:49.435Z,20.53
2023-02-11T02:31:27.395Z,20.46
2023-02-11T02:34:02.090Z,20.49
2023-02-11T02:36:51.923Z,20.71
2023-02-11T02:39:22.301Z,20.76
2023-02-11T02:41:49.444Z,20.94
2023-02-11T02:44:16.430Z,20.98
2023-02-11T02:46:43.341Z,21.31
2023-02-11T02:49:13.760Z,21.34
2023-02-11T02:51:52.414Z,21.25
2023-02-11T02:54:27.309Z,21.54
2023-02-11T02:57:00.196Z,21.68
2023-02-11T02:59:49.037Z,21.89
2023-02-11T03:02:46.196Z,22.02
2023-02-11T03:05:23.708Z,21.90
2023-02-11T03:08:17.486Z,21.91
2023-02-11T03:10:46.603Z,22.32
2023-02-11T03:13:16.855Z,22.23
2023-02-11T03:15:46.496Z,22.28
2023-02-11T03:18:15.315Z,22.48
2023-02-11T03:20:43.465Z,22.59
2023-02-11T03:23:22.567Z,22.64
2023-02-11T03:25:56.422Z,22.94
2023-02-11T03:28:23.446Z,22.85
2023-02-11T03:30:55.756Z,22.94
2023-02-11T03:33:31.873Z,23.33
2023-02-11T03:36:01.616Z,23.16
2023-02-11T03:38:36.882Z,23.62
2023-02-11T03:41:04.331Z,23.73
2023-02-11T03:43:33.864Z,23.76
2023-02-11T03:46:00.762Z,23.63
2023-02-11T03:48:36.965Z,23.88
2023-02-11T03:51:05.777Z,23.87
2023-02-11T03:53:32.615Z,23.90
2023-02-11T03:56:00.596Z,24.08
2023-02-11T03:58:27.489Z,24.37
2023-02-11T04:00:54.398Z,24.58
2023-02-11T04:03:21.318Z,24.33
2023-02-11T04:05:48.763Z,24.40
2023-02-11T04:08:15.788Z,24.59
2023-02-11T04:10:42.612Z,24.71
2023-02-11T04:13:09.563Z,24.77
2023-02-11T04:15:36.438Z,24.92
2023-02-11T04:18:03.649Z,25.04
2023-02-11T04:20:30.609Z,25.21
2023-02-11T04:22:57.482Z,25.32
2023-02-11T04:25:25.943Z,25.49
2023-02-11T04:27:52.872Z,25.42
2023-02-11T04:30:19.721Z,25.37
2023-02-11T04:32:46.547Z,25.60
2023-02-11T04:35:13.397Z,25.81
2023-02-11T04:37:40.247Z,26.01
2023-02-11T04:40:07.592Z,25.82
2023-02-11T04:42:34.499Z,26.20
2023-02-11T04:45:01.868Z,25.98
2023-02-11T04:47:28.730Z,26.26
2023-02-11T04:49:55.700Z,26.13
2023-02-11T04:52:22.522Z,26.70
2023-02-11T04:54:49.356Z,26.56
2023-02-11T04:57:16.246Z,26.92
2023-02-11T04:59:43.084Z,26.76
2023-02-11T05:02:09.914Z,27.03
2023-02-11T05:04:36.785Z,26.86
2023-02-11T05:07:03.670Z,26.95
2023-02-11T05:09:30.506Z,27.10
2023-02-11T05:11:57.395Z,26.98
2023-02-11T05:14:24.353Z,27.13
2023-02-11T05:16:51.285Z,27.13
2023-02-11T05:19:18.220Z,27.09
2023-02-11T05:22:00.273Z,27.54
2023-02-11T05:24:28.842Z,27.48
2023-02-11T05:26:55.683Z,27.66
2023-02-11T05:29:22.625Z,27.56
2023-02-11T05:31:49.503Z,27.64
2023-02-11T05:34:16.354Z,27.35
2023-02-11T05:36:43.160Z,27.91
2023-02-11T05:39:10.023Z,27.88
2023-02-11T05:41:38.112Z,27.93
2023-02-11T05:44:04.941Z,27.93
2023-02-11T05:46:31.880Z,28.02
2023-02-11T05:48:58.801Z,27.92
2023-02-11T05:51:25.709Z,28.03
2023-02-11T05:53:53.119Z,28.11
2023-02-11T05:56:20.018Z,28.27
2023-02-11T05:58:46.994Z,28.21
2023-02-11T06:01:13.913Z,28.44
2023-02-11T06:03:40.874Z,28.18
2023-02-11T06:06:11.777Z,28.57
2023-02-11T06:08:39.443Z,28.62
2023-02-11T06:11:06.385Z,28.47
2023-02-11T06:13:33.256Z,28.39
2023-02-11T06:16:00.678Z,28.51
2023-02-11T06:18:27.758Z,28.85
2023-02-11T06:20:54.693Z,28.37
2023-02-11T06:23:21.853Z,28.29
2023-02-11T06:25:49.416Z,28.16
2023-02-11T06:28:16.674Z,28.59
2023-02-11T06:30:43.670Z,28.56
2023-02-11T06:33:10.541Z,28.42
2023-02-11T06:35:40.486Z,29.18
2023-02-11T06:38:07.460Z,29.11
2023-02-11T06:40:34.361Z,29.57
2023-02-11T06:43:01.271Z,29.40
2023-02-11T06:45:28.171Z,29.86
2023-02-11T06:47:55.028Z,28.96
2023-02-11T06:50:21.995Z,29.09
2023-02-11T06:52:48.882Z,29.46
2023-02-11T06:55:15.749Z,29.47
2023-02-11T06:57:42.661Z,29.20
2023-02-11T07:00:10.216Z,29.37
2023-02-11T07:02:37.170Z,29.31
2023-02-11T07:05:06.420Z,29.90
2023-02-11T07:07:34.379Z,29.72
2023-02-11T07:10:03.142Z,29.73
2023-02-11T07:12:30.761Z,29.79
2023-02-11T07:14:57.720Z,29.73
2023-02-11T07:17:24.752Z,30.03
2023-02-11T07:19:51.618Z,29.81
2023-02-11T07:22:18.525Z,29.85
2023-02-11T07:24:45.627Z,29.93
2023-02-11T07:27:12.632Z,29.96
2023-02-11T07:29:39.903Z,29.97
2023-02-11T07:32:06.859Z,30.03
2023-02-11T07:34:34.052Z,30.08
2023-02-11T07:37:00.960Z,29.96
2023-02-11T07:39:27.865Z,30.33
2023-02-11T07:41:54.747Z,30.36
2023-02-11T07:44:21.864Z,30.04
2023-02-11T07:46:49.361Z,30.26
2023-02-11T07:49:16.318Z,30.28
2023-02-11T07:51:43.217Z,30.49
2023-02-11T07:54:10.155Z,30.45
2023-02-11T07:56:37.007Z,30.61
2023-02-11T07:59:03.916Z,30.48
2023-02-11T08:01:30.921Z,30.81
2023-02-11T08:03:58.485Z,30.61
2023-02-11T08:06:26.736Z,30.92
2023-02-11T08:08:53.671Z,30.79
2023-02-11T08:11:27.826Z,31.09
2023-02-11T08:13:55.192Z,31.00
2023-02-11T08:16:26.005Z,31.12
2023-02-11T08:18:53.452Z,30.91
2023-02-11T08:21:20.642Z,31.07
2023-02-11T08:23:47.595Z,31.33
2023-02-11T08:26:17.089Z,31.39
2023-02-11T08:28:44.585Z,31.28
2023-02-11T08:31:16.596Z,31.21
2023-02-11T08:33:43.880Z,31.44
2023-02-11T08:36:12.155Z,31.56
2023-02-11T08:38:39.186Z,31.57
2023-02-11T08:41:06.414Z,31.59
2023-02-11T08:43:33.509Z,31.47
2023-02-11T08:46:02.141Z,31.77
2023-02-11T08:48:29.553Z,31.81
2023-02-11T08:50:56.729Z,31.71
2023-02-11T08:53:23.641Z,31.70
2023-02-11T08:55:51.486Z,31.69
2023-02-11T08:58:19.274Z,31.52
2023-02-11T09:00:46.606Z,31.88
2023-02-11T09:03:14.122Z,31.88
2023-02-11T09:05:47.090Z,31.90
2023-02-11T09:08:14.086Z,31.84
2023-02-11T09:10:40.936Z,31.90
2023-02-11T09:13:07.822Z,31.82
2023-02-11T09:15:34.929Z,32.18
2023-02-11T09:18:01.797Z,32.17
2023-02-11T09:20:28.906Z,32.18
2023-02-11T09:22:57.161Z,32.10
2023-02-11T09:25:24.107Z,31.89
2023-02-11T09:27:52.316Z,31.83
2023-02-11T09:30:19.383Z,31.92
2023-02-11T09:32:46.234Z,31.95
2023-02-11T09:35:13.108Z,31.52
2023-02-11T09:37:39.993Z,31.82
2023-02-11T09:40:07.076Z,31.92
2023-02-11T09:42:59.335Z,32.33
2023-02-11T09:45:29.114Z,32.50
2023-02-11T09:48:06.348Z,32.61
2023-02-11T09:50:39.262Z,32.37
2023-02-11T09:53:18.924Z,32.17
2023-02-11T09:55:47.432Z,32.03
2023-02-11T09:58:16.242Z,32.26
2023-02-11T10:00:57.558Z,32.07
2023-02-11T10:04:12.173Z,32.62
2023-02-11T10:06:46.258Z,32.70
2023-02-11T10:09:22.355Z,32.71
2023-02-11T10:12:04.306Z,32.84
2023-02-11T10:14:52.259Z,33.12
2023-02-11T10:17:36.988Z,33.12
2023-02-11T10:20:03.803Z,33.37
2023-02-11T10:22:40.653Z,32.96
2023-02-11T10:25:27.162Z,33.15
2023-02-11T10:27:57.157Z,32.58
2023-02-11T10:30:35.129Z,32.35
2023-02-11T10:33:02.032Z,32.71
2023-02-11T10:35:28.932Z,32.82
2023-02-11T10:37:56.172Z,32.94
2023-02-11T10:40:25.117Z,33.29
2023-02-11T10:42:55.594Z,33.18
2023-02-11T10:45:33.702Z,33.03
2023-02-11T10:48:04.480Z,33.29
2023-02-11T10:50:35.245Z,33.24
2023-02-11T10:53:12.177Z,33.53
2023-02-11T10:55:39.079Z,33.00
2023-02-11T10:58:05.909Z,33.03
2023-02-11T11:00:40.143Z,33.53
2023-02-11T11:03:20.833Z,33.57
2023-02-11T11:05:52.990Z,33.33
2023-02-11T11:08:19.874Z,33.65
2023-02-11T11:10:48.935Z,33.43
2023-02-11T11:13:30.689Z,33.62
2023-02-11T11:16:15.132Z,33.70
2023-02-11T11:18:46.014Z,33.71
2023-02-11T11:21:24.195Z,33.72
2023-02-11T11:24:01.309Z,33.82
2023-02-11T11:26:39.000Z,33.71
2023-02-11T11:29:11.935Z,34.01
2023-02-11T11:31:47.868Z,33.96
2023-02-11T11:34:25.390Z,34.36
2023-02-11T11:36:52.283Z,34.18
2023-02-11T11:39:24.581Z,34.30
2023-02-11T11:41:56.306Z,34.51
2023-02-11T11:44:27.746Z,34.54
2023-02-11T11:47:19.793Z,33.56
2023-02-11T11:50:10.480Z,33.34
2023-02-11T11:53:09.861Z,33.59
2023-02-11T11:56:03.803Z,33.27
2023-02-11T11:58:31.808Z,33.19
2023-02-11T12:01:04.635Z,33.47
2023-02-11T12:03:52.786Z,33.26
2023-02-11T12:06:41.174Z,33.30
2023-02-11T12:09:27.037Z,33.21
2023-02-11T12:12:09.236Z,33.29
2023-02-11T12:14:44.299Z,33.20
2023-02-11T12:17:31.071Z,33.27
2023-02-11T12:20:18.255Z,33.25
2023-02-11T12:23:17.163Z,33.49
2023-02-11T12:25:53.048Z,33.29
2023-02-11T12:28:35.264Z,33.37
2023-02-11T12:31:14.353Z,33.18
2023-02-11T12:34:01.542Z,33.34
2023-02-11T12:36:39.366Z,33.63
2023-02-11T12:39:24.568Z,33.21
2023-02-11T12:42:22.228Z,33.26
2023-02-11T12:45:11.805Z,33.57
2023-02-11T12:47:56.932Z,33.42
2023-02-11T12:50:38.969Z,33.36
2023-02-11T12:53:14.723Z,33.26
2023-02-11T12:55:44.316Z,33.66
2023-02-11T12:58:15.380Z,33.59
2023-02-11T13:00:51.808Z,33.34
2023-02-11T13:03:50.041Z,33.76
2023-02-11T13:06:22.751Z,33.74
2023-02-11T13:08:51.506Z,33.77
2023-02-11T13:11:19.930Z,33.77
2023-02-11T13:13:55.816Z,33.64
2023-02-11T13:16:47.806Z,33.59
2023-02-11T13:19:56.948Z,33.75
2023-02-11T13:22:40.241Z,33.80
2023-02-11T13:25:23.553Z,33.67
2023-02-11T13:28:18.656Z,33.62
2023-02-11T13:30:51.863Z,33.77
2023-02-11T13:33:21.063Z,33.87
2023-02-11T13:35:57.179Z,33.75
2023-02-11T13:38:25.212Z,33.80
2023-02-11T13:41:17.780Z,33.85
2023-02-11T13:43:44.844Z,34.01
2023-02-11T13:46:12.638Z,33.85
2023-02-11T13:48:49.162Z,34.02
2023-02-11T13:51:18.138Z,34.06
2023-02-11T13:53:46.050Z,33.85
2023-02-11T13:56:38.589Z,33.83
2023-02-11T13:59:33.570Z,33.84
2023-02-11T14:02:18.883Z,33.92
2023-02-11T14:05:22.520Z,33.90
2023-02-11T14:08:30.153Z,34.17
2023-02-11T14:11:01.422Z,34.21
2023-02-11T14:13:31.240Z,34.15
2023-02-11T14:16:04.199Z,34.21
2023-02-11T14:18:49.224Z,34.06
2023-02-11T14:21:26.516Z,34.09
2023-02-11T14:24:02.551Z,34.27
2023-02-11T14:26:33.390Z,34.20
2023-02-11T14:29:14.140Z,34.48
2023-02-11T14:31:49.448Z,34.34
2023-02-11T14:34:47.239Z,34.28
2023-02-11T14:37:36.565Z,34.49
2023-02-11T14:40:23.813Z,34.58
2023-02-11T14:42:51.629Z,34.30
2023-02-11T14:45:20.512Z,34.57
2023-02-11T14:47:53.175Z,34.37
2023-02-11T14:50:24.974Z,34.61
2023-02-11T14:52:51.929Z,34.65
2023-02-11T14:55:37.138Z,34.38
2023-02-11T14:58:06.955Z,34.41
2023-02-11T15:00:34.075Z,34.76
2023-02-11T15:03:01.133Z,34.68
2023-02-11T15:05:29.117Z,34.58
2023-02-11T15:08:00.123Z,34.89
2023-02-11T15:10:44.408Z,34.48
2023-02-11T15:13:21.763Z,34.64
2023-02-11T15:15:48.751Z,34.57
2023-02-11T15:18:22.737Z,34.84
2023-02-11T15:20:50.267Z,34.64
2023-02-11T15:23:22.818Z,34.78
2023-02-11T15:26:07.656Z,34.54
2023-02-11T15:28:35.040Z,34.82
2023-02-11T15:31:11.699Z,34.64
2023-02-11T15:33:38.761Z,34.97
2023-02-11T15:36:06.095Z,34.97
2023-02-11T15:38:32.990Z,34.63
2023-02-11T15:41:02.108Z,34.83
2023-02-11T15:43:48.374Z,34.89
2023-02-11T15:46:19.738Z,34.93
2023-02-11T15:48:49.001Z,34.82
2023-02-11T15:51:32.917Z,34.85
2023-02-11T15:54:01.220Z,34.91
2023-02-11T15:56:50.878Z,35.18
2023-02-11T15:59:50.772Z,35.16
2023-02-11T16:02:21.927Z,35.12
2023-02-11T16:04:57.229Z,35.07
2023-02-11T16:07:47.441Z,35.34
2023-02-11T16:10:23.193Z,35.21
2023-02-11T16:12:53.672Z,35.43
2023-02-11T16:15:38.300Z,35.14
2023-02-11T16:18:13.609Z,35.55
2023-02-11T16:20:40.487Z,35.44
2023-02-11T16:23:07.484Z,34.88
2023-02-11T16:25:37.548Z,35.31
2023-02-11T16:28:04.625Z,35.06
2023-02-11T16:30:37.682Z,35.14
2023-02-11T16:33:05.529Z,35.02
2023-02-11T16:35:32.449Z,35.31
2023-02-11T16:37:59.344Z,35.15
2023-02-11T16:40:26.272Z,35.37
2023-02-11T16:42:53.533Z,35.31
2023-02-11T16:45:20.493Z,35.43
2023-02-11T16:47:47.495Z,35.52
2023-02-11T16:50:24.946Z,35.31
2023-02-11T16:52:52.439Z,35.44
2023-02-11T16:55:21.959Z,35.63
2023-02-11T16:57:49.279Z,35.67
2023-02-11T17:00:16.719Z,35.50
2023-02-11T17:02:43.584Z,35.50
2023-02-11T17:05:16.985Z,35.60
2023-02-11T17:07:43.914Z,35.92
2023-02-11T17:10:15.868Z,35.78
2023-02-11T17:12:42.731Z,35.66
2023-02-11T17:15:09.937Z,35.67
2023-02-11T17:17:36.872Z,35.98
2023-02-11T17:20:04.087Z,35.75
2023-02-11T17:22:31.024Z,36.02
2023-02-11T17:24:58.743Z,35.99
2023-02-11T17:27:25.620Z,35.93
2023-02-11T17:29:52.529Z,36.31
2023-02-11T17:32:19.446Z,36.37
2023-02-11T17:34:46.566Z,35.99
2023-02-11T17:37:13.400Z,36.36
2023-02-11T17:39:40.285Z,36.05
2023-02-11T17:42:07.427Z,36.20
2023-02-11T17:44:34.323Z,36.33
2023-02-11T17:47:01.193Z,36.12
2023-02-11T17:49:28.114Z,36.24
2023-02-11T17:51:54.945Z,36.17
2023-02-11T17:54:21.854Z,36.30
2023-02-11T17:56:50.800Z,36.42
2023-02-11T17:59:17.940Z,36.43
2023-02-11T18:01:44.787Z,36.52
2023-02-11T18:04:16.342Z,36.49
2023-02-11T18:06:43.374Z,36.71
2023-02-11T18:09:10.310Z,36.30
2023-02-11T18:11:37.481Z,36.78
2023-02-11T18:14:04.652Z,36.83
2023-02-11T18:16:31.633Z,36.82
2023-02-11T18:18:58.613Z,36.83
2023-02-11T18:21:25.610Z,37.06
2023-02-11T18:23:52.610Z,36.76
2023-02-11T18:26:20.518Z,36.86
2023-02-11T18:28:47.538Z,36.88
2023-02-11T18:31:14.662Z,37.12
2023-02-11T18:33:41.767Z,37.10
2023-02-11T18:36:10.195Z,37.12
2023-02-11T18:38:37.140Z,37.04
2023-02-11T18:41:04.310Z,37.12
2023-02-11T18:43:34.536Z,37.39
2023-02-11T18:46:02.075Z,37.18
2023-02-11T18:48:28.989Z,37.28
2023-02-11T18:50:56.017Z,37.38
2023-02-11T18:53:23.087Z,37.26
2023-02-11T18:55:52.246Z,37.40
2023-02-11T18:58:21.169Z,37.40
2023-02-11T19:00:48.294Z,37.59
2023-02-11T19:03:15.222Z,37.54
2023-02-11T19:05:45.925Z,37.67
2023-02-11T19:08:13.384Z,37.65
2023-02-11T19:10:44.920Z,37.81
2023-02-11T19:13:11.857Z,37.75
2023-02-11T19:15:42.555Z,37.77
2023-02-11T19:18:09.663Z,37.77
2023-02-11T19:20:39.166Z,37.78
2023-02-11T19:23:06.068Z,37.84
2023-02-11T19:25:33.355Z,38.01
2023-02-11T19:28:00.451Z,37.91
2023-02-11T19:30:27.573Z,38.18
2023-02-11T19:32:57.158Z,37.73
2023-02-11T19:35:24.363Z,37.83
2023-02-11T19:37:51.398Z,37.95
2023-02-11T19:40:19.258Z,38.29
2023-02-11T19:42:46.114Z,38.12
2023-02-11T19:45:12.948Z,38.02
2023-02-11T19:47:39.836Z,38.19
2023-02-11T19:50:07.281Z,38.12
2023-02-11T19:52:34.108Z,38.24
2023-02-11T19:55:00.923Z,37.98
2023-02-11T19:57:27.805Z,38.48
2023-02-11T19:59:56.905Z,38.23
2023-02-11T20:02:23.815Z,38.25
2023-02-11T20:04:50.707Z,38.23
2023-02-11T20:07:17.611Z,38.28
2023-02-11T20:09:44.601Z,38.19
2023-02-11T20:12:12.123Z,38.32
2023-02-11T20:14:39.002Z,38.07
2023-02-11T20:17:05.878Z,38.06
2023-02-11T20:19:32.731Z,38.51
2023-02-11T20:21:59.580Z,38.33
2023-02-11T20:24:26.485Z,38.38
2023-02-11T20:26:55.962Z,38.32
2023-02-11T20:29:23.790Z,38.21
2023-02-11T20:31:50.932Z,38.47
2023-02-11T20:34:18.181Z,38.43
2023-02-11T20:36:51.729Z,38.48
2023-02-11T20:39:19.328Z,38.47
2023-02-11T20:41:46.397Z,38.46
2023-02-11T20:44:13.449Z,38.71
2023-02-11T20:46:42.530Z,38.30
2023-02-11T20:49:13.560Z,38.37
2023-02-11T20:51:40.558Z,38.46
2023-02-11T20:54:07.642Z,38.62
2023-02-11T20:56:35.760Z,38.50
2023-02-11T20:59:03.895Z,38.48
2023-02-11T21:01:31.861Z,38.48
2023-02-11T21:04:00.254Z,38.51
2023-02-11T21:06:30.158Z,38.29
2023-02-11T21:08:57.575Z,38.27
2023-02-11T21:11:24.437Z,38.37
2023-02-11T21:13:51.314Z,38.37
2023-02-11T21:16:20.435Z,38.55
2023-02-11T21:18:47.656Z,38.49
2023-02-11T21:21:14.690Z,38.60
2023-02-11T21:23:41.580Z,38.40
2023-02-11T21:26:08.885Z,38.92
2023-02-11T21:28:35.992Z,38.71
2023-02-11T21:31:03.047Z,38.71
2023-02-11T21:33:30.253Z,38.68
2023-02-11T21:35:57.867Z,38.61
2023-02-11T21:38:25.017Z,38.46
2023-02-11T21:40:52.150Z,38.42
2023-02-11T21:43:19.383Z,38.42
2023-02-11T21:45:47.600Z,38.35
2023-02-11T21:48:14.531Z,38.34
2023-02-11T21:50:42.061Z,38.46
2023-02-11T21:53:09.069Z,38.49
2023-02-11T21:55:36.248Z,38.49
2023-02-11T21:58:03.379Z,38.89
2023-02-11T22:00:30.312Z,38.65
2023-02-11T22:02:57.163Z,38.71
2023-02-11T22:05:24.148Z,38.76
2023-02-11T22:07:51.179Z,38.73
2023-02-11T22:10:19.043Z,38.48
2023-02-11T22:12:46.076Z,38.88
2023-02-11T22:15:13.286Z,38.88
2023-02-11T22:17:40.262Z,38.90
2023-02-11T22:20:07.612Z,38.88
2023-02-11T22:22:35.363Z,38.95
2023-02-11T22:25:03.297Z,38.54
2023-02-11T22:27:30.212Z,38.97
2023-02-11T22:29:57.155Z,38.97
2023-02-11T22:32:24.082Z,38.61
2023-02-11T22:34:53.313Z,38.89
2023-02-11T22:37:20.505Z,38.70
2023-02-11T22:39:47.669Z,38.82
2023-02-11T22:42:14.639Z,38.72
2023-02-11T22:44:41.539Z,39.06
2023-02-11T22:47:08.441Z,38.83
2023-02-11T22:49:35.725Z,38.77
2023-02-11T22:52:02.681Z,39.00
2023-02-11T22:54:29.731Z,38.97
2023-02-11T22:56:56.660Z,38.93
2023-02-11T22:59:23.686Z,38.60
2023-02-11T23:01:50.860Z,39.02
2023-02-11T23:04:19.279Z,38.85
2023-02-11T23:06:47.618Z,38.80
2023-02-11T23:09:14.543Z,38.81
2023-02-11T23:11:41.811Z,38.89
2023-02-11T23:14:10.164Z,38.37
2023-02-11T23:16:37.189Z,38.39
2023-02-11T23:19:06.818Z,37.91
2023-02-11T23:21:35.197Z,37.79
2023-02-11T23:24:04.249Z,37.39
2023-02-11T23:26:31.273Z,37.48
2023-02-11T23:28:58.964Z,37.12
2023-02-11T23:31:30.767Z,36.81
2023-02-11T23:33:57.787Z,36.64
2023-02-11T23:36:24.731Z,36.88
2023-02-11T23:38:51.787Z,36.61
2023-02-11T23:41:19.538Z,36.75
2023-02-11T23:43:53.782Z,36.34
2023-02-11T23:46:22.170Z,36.15
2023-02-11T23:48:49.883Z,35.93
2023-02-11T23:51:16.922Z,35.79
2023-02-11T23:53:45.972Z,35.40
2023-02-11T23:56:20.694Z,34.92
2023-02-11T23:58:48.383Z,34.89
